createdAt,value
2016-12-12T16:19:06.517Z,93.7
2016-12-12T16:20:21.598Z,91.35
2016-12-12T16:21:35.183Z,88.91
2016-12-12T16:22:52.053Z,85.41
2016-12-12T16:24:08.134Z,62.23
2016-12-12T16:25:23.962Z,60.64
2016-12-12T16:26:38.572Z,63.42
2016-12-12T16:27:51.611Z,67.17
2016-12-12T16:29:06.747Z,70.06
2016-12-12T16:30:18.901Z,72.02
2016-12-12T16:31:35.133Z,73.7
2016-12-12T16:32:49.935Z,75.23
2016-12-12T16:34:05.832Z,76.9
2016-12-12T16:35:22.459Z,77.37
2016-12-12T16:36:38.098Z,78.57
2016-12-12T16:37:52.791Z,79.24
2016-12-12T16:39:08.846Z,79.52
2016-12-12T16:40:24.905Z,79.91
2016-12-12T16:41:40.825Z,80.57
2016-12-12T16:42:56.227Z,81.05
2016-12-12T16:44:10.931Z,81.01
2016-12-12T16:45:25.193Z,81.86
2016-12-12T16:46:40.935Z,81.67
2016-12-12T16:47:54.680Z,81.77
2016-12-12T16:49:10.822Z,82.53
2016-12-12T16:50:27.470Z,83.19
2016-12-12T16:51:44.388Z,83
2016-12-12T16:52:58.941Z,82.87
2016-12-12T16:54:15.699Z,83.1
2016-12-12T16:55:30.478Z,83.1
2016-12-12T16:56:46.762Z,82.96
2016-12-12T16:58:02.918Z,83.62
2016-12-12T16:59:19.456Z,82.96
2016-12-12T17:00:36.734Z,83.62
2016-12-12T17:01:51.883Z,83.25
2016-12-12T17:03:05.388Z,82.87
2016-12-12T17:04:18.891Z,83.15
2016-12-12T17:05:31.181Z,83.15
2016-12-12T17:06:47.234Z,83.72
2016-12-12T17:08:02.416Z,83.62
2016-12-12T17:09:18.107Z,83.15
2016-12-12T17:10:31.908Z,82.87
2016-12-12T17:11:45.931Z,83.15
2016-12-12T17:13:00.723Z,83.53
2016-12-12T17:14:17.069Z,83.53
2016-12-12T17:15:32.218Z,82.77
2016-12-12T17:16:48.186Z,83.06
2016-12-12T17:18:02.886Z,83.15
2016-12-12T17:19:18.264Z,83.06
2016-12-12T17:20:34.597Z,82.58
2016-12-12T17:21:50.483Z,82.29
2016-12-12T17:23:06.053Z,82.68
2016-12-12T17:24:20.736Z,82.58
2016-12-12T17:25:33.900Z,83.25
2016-12-12T17:26:49.642Z,82.58
2016-12-12T17:28:05.417Z,82.01
2016-12-12T17:29:20.055Z,82.29
2016-12-12T17:30:34.458Z,82.2
2016-12-12T17:31:47.921Z,82.39
2016-12-12T17:33:00.694Z,82.49
2016-12-12T17:34:15.188Z,82.68
2016-12-12T17:35:31.934Z,82.39
2016-12-12T17:36:47.836Z,82.49
2016-12-12T17:38:01.490Z,82.01
2016-12-12T17:39:15.210Z,82.29
2016-12-12T17:40:30.548Z,82.1
2016-12-12T17:41:45.688Z,82.29
2016-12-12T17:42:59.140Z,82.2
2016-12-12T17:44:13.470Z,82.2
2016-12-12T17:45:27.902Z,82.49
2016-12-12T17:46:43.979Z,82.49
2016-12-12T17:47:57.117Z,81.63
2016-12-12T17:49:13.441Z,82.29
2016-12-12T17:50:26.703Z,82.2
2016-12-12T17:51:40.689Z,82.29
2016-12-12T17:52:54.588Z,81.63
2016-12-12T17:54:10.023Z,81.63
2016-12-12T17:55:25.520Z,82.49
2016-12-12T17:56:40.750Z,82.01
2016-12-12T17:57:55.836Z,82.2
2016-12-12T17:59:12.888Z,82.1
2016-12-12T18:00:25.246Z,82.2
2016-12-12T18:01:41.482Z,81.54
2016-12-12T18:02:57.948Z,81.54
2016-12-12T18:04:12.949Z,81.82
2016-12-12T18:05:28.030Z,81.44
2016-12-12T18:06:44.127Z,81.63
2016-12-12T18:08:00.027Z,81.44
2016-12-12T18:09:13.213Z,81.82
2016-12-12T18:10:28.309Z,81.63
2016-12-12T18:11:42.702Z,81.44
2016-12-12T18:12:57.950Z,81.54
2016-12-12T18:14:13.699Z,81.82
2016-12-12T18:15:26.972Z,81.82
2016-12-12T18:16:40.106Z,81.63
2016-12-12T18:17:55.145Z,82.2
2016-12-12T18:19:08.256Z,81.63
2016-12-12T18:20:21.011Z,81.73
2016-12-12T18:21:35.941Z,82.39
2016-12-12T18:22:51.585Z,82.39
2016-12-12T18:24:06.074Z,81.63
2016-12-12T18:25:21.051Z,81.63
2016-12-12T18:26:34.718Z,81.16
2016-12-12T18:27:49.073Z,81.54
2016-12-12T18:29:02.998Z,81.92
2016-12-12T18:30:18.598Z,81.73
2016-12-12T18:31:34.507Z,81.63
2016-12-12T18:32:51.255Z,82.1
2016-12-12T18:34:06.866Z,82.68
2016-12-12T18:35:21.491Z,82.29
2016-12-12T18:36:37.554Z,82.39
2016-12-12T18:37:52.375Z,82.2
2016-12-12T18:39:07.431Z,81.44
2016-12-12T18:40:24.158Z,81.63
2016-12-12T18:41:37.377Z,81.73
2016-12-12T18:42:50.179Z,81.82
2016-12-12T18:44:06.339Z,82.01
2016-12-12T18:45:18.557Z,81.44
2016-12-12T18:46:33.401Z,81.92
2016-12-12T18:47:49.860Z,81.92
2016-12-12T18:49:03.835Z,81.63
2016-12-12T18:50:17.914Z,81.63
2016-12-12T18:51:32.298Z,81.54
2016-12-12T18:52:47.481Z,81.82
2016-12-12T18:54:01.942Z,81.44
2016-12-12T18:55:17.641Z,81.54
2016-12-12T18:56:33.201Z,81.82
2016-12-12T18:57:47.876Z,81.63
2016-12-12T18:59:03.774Z,82.2
2016-12-12T19:00:20.514Z,82.1
2016-12-12T19:01:36.658Z,82.2
2016-12-12T19:02:49.939Z,82.58
2016-12-12T19:04:06.206Z,82.29
2016-12-12T19:05:21.888Z,82.68
2016-12-12T19:06:34.687Z,82.49
2016-12-12T19:07:48.797Z,82.68
2016-12-12T19:09:04.681Z,82.87
2016-12-12T19:10:19.130Z,82.87
2016-12-12T19:11:33.807Z,83.06
2016-12-12T19:12:48.592Z,83.62
2016-12-12T19:14:02.175Z,82.68
2016-12-12T19:15:16.240Z,83.25
2016-12-12T19:16:31.623Z,83.25
2016-12-12T19:17:44.904Z,83.15
2016-12-12T19:18:59.829Z,83.15
2016-12-12T19:20:16.443Z,83.15
2016-12-12T19:21:31.991Z,83.44
2016-12-12T19:22:45.817Z,83.91
2016-12-12T19:24:01.748Z,84.2
2016-12-12T19:25:18.588Z,84.01
2016-12-12T19:26:34.907Z,83.91
2016-12-12T19:27:50.671Z,84.2
2016-12-12T19:29:06.853Z,84.29
2016-12-12T19:30:21.360Z,84.58
2016-12-12T19:31:34.772Z,84.58
2016-12-12T19:32:51.258Z,84.91
2016-12-12T19:34:07.605Z,84.82
2016-12-12T19:35:24.136Z,85.05
2016-12-12T19:36:39.628Z,85.11
2016-12-12T19:37:51.973Z,85.3
2016-12-12T19:39:06.350Z,85.2
2016-12-12T19:40:22.914Z,85.34
2016-12-12T19:41:37.635Z,85.01
2016-12-12T19:42:52.835Z,85.11
2016-12-12T19:44:05.658Z,85.01
2016-12-12T19:45:20.293Z,85.2
2016-12-12T19:46:36.102Z,85.11
2016-12-12T19:47:51.109Z,85.39
2016-12-12T19:49:07.877Z,85.49
2016-12-12T19:50:22.570Z,85.68
2016-12-12T19:51:35.628Z,86
2016-12-12T19:52:49.582Z,85.68
2016-12-12T19:54:04.263Z,85.86
2016-12-12T19:55:20.451Z,86.15
2016-12-12T19:56:36.766Z,86.15
2016-12-12T19:57:53.980Z,86.15
2016-12-12T19:59:10.811Z,86.15
2016-12-12T20:00:26.748Z,86.24
2016-12-12T20:01:38.478Z,86.29
2016-12-12T20:02:52.984Z,86.24
2016-12-12T20:04:07.198Z,86.1
2016-12-12T20:05:20.469Z,86.29
2016-12-12T20:06:37.351Z,86.24
2016-12-12T20:07:54.095Z,86.05
2016-12-12T20:09:08.942Z,86.24
2016-12-12T20:10:24.651Z,86.05
2016-12-12T20:11:40.378Z,86.63
2016-12-12T20:12:54.029Z,86.63
2016-12-12T20:14:10.106Z,86.43
2016-12-12T20:15:24.457Z,86.57
2016-12-12T20:16:39.298Z,86.63
2016-12-12T20:17:52.305Z,86.63
2016-12-12T20:19:08.074Z,86.53
2016-12-12T20:20:25.003Z,86.72
2016-12-12T20:21:41.166Z,86.67
2016-12-12T20:22:57.266Z,86.63
2016-12-12T20:24:13.892Z,86.43
2016-12-12T20:25:30.216Z,86.91
2016-12-12T20:26:45.494Z,87.19
2016-12-12T20:27:59.805Z,87.38
2016-12-12T20:29:15.587Z,87.29
2016-12-12T20:30:31.221Z,87.19
2016-12-12T20:31:47.164Z,87.14
2016-12-12T20:33:00.164Z,87.19
2016-12-12T20:34:16.261Z,87.01
2016-12-12T20:35:29.020Z,87.1
2016-12-12T20:36:43.386Z,87.05
2016-12-12T20:37:59.327Z,87.1
2016-12-12T20:39:13.655Z,87.1
2016-12-12T20:40:29.302Z,87.34
2016-12-12T20:41:43.741Z,87.1
2016-12-12T20:42:58.357Z,87.05
2016-12-12T20:44:15.101Z,87.01
2016-12-12T20:45:28.258Z,87.38
2016-12-12T20:46:43.986Z,86.67
2016-12-12T20:48:00.147Z,87.19
2016-12-12T20:49:13.690Z,87.19
2016-12-12T20:50:29.508Z,87.19
2016-12-12T20:51:43.994Z,87.19
2016-12-12T20:52:58.837Z,87.19
2016-12-12T20:54:12.767Z,87.05
2016-12-12T20:55:28.163Z,87.19
2016-12-12T20:56:44.344Z,87.38
2016-12-12T20:57:58.259Z,87.29
2016-12-12T20:59:12.954Z,87.1
2016-12-12T21:00:28.295Z,87.67
2016-12-12T21:01:42.490Z,87.29
2016-12-12T21:02:57.654Z,87.29
2016-12-12T21:06:23.330Z,87.57
2016-12-12T21:07:38.432Z,87.38
2016-12-12T21:08:52.070Z,87.38
2016-12-12T21:10:08.932Z,87.19
2016-12-12T21:14:01.343Z,87.01
2016-12-12T21:15:14.892Z,86.91
2016-12-12T21:16:30.387Z,87.1
2016-12-12T21:17:45.842Z,87.19
2016-12-12T21:18:57.978Z,87.38
2016-12-12T21:20:40.113Z,87.76
2016-12-12T21:22:13.161Z,87.38
2016-12-12T21:23:28.830Z,88.05
2016-12-12T21:24:45.159Z,87.57
2016-12-12T21:26:00.017Z,87.86
2016-12-12T21:28:42.218Z,87.86
2016-12-12T21:29:55.151Z,87.86
2016-12-12T21:31:11.607Z,88.24
2016-12-12T21:32:28.069Z,88.53
2016-12-12T21:33:42.451Z,88.9
2016-12-12T21:34:58.238Z,89.38
2016-12-12T21:36:12.618Z,89.19
2016-12-12T21:37:26.352Z,89.28
2016-12-12T21:38:41.545Z,89.19
2016-12-12T21:39:58.019Z,89.19
2016-12-12T21:41:12.322Z,88.9
2016-12-12T21:42:25.912Z,89.67
2016-12-12T21:43:39.810Z,89.47
2016-12-12T21:44:53.849Z,89.76
2016-12-12T21:46:10.674Z,89.86
2016-12-12T21:47:27.624Z,89.76
2016-12-12T21:48:43.227Z,89.86
2016-12-12T21:49:59.768Z,89.76
2016-12-12T21:51:14.963Z,89.47
2016-12-12T21:52:29.839Z,89.86
2016-12-12T21:53:45.299Z,90.05
2016-12-12T21:55:00.786Z,89.67
2016-12-12T21:56:14.514Z,90.52
2016-12-12T21:57:29.545Z,90.33
2016-12-12T21:58:44.511Z,90.14
2016-12-12T21:59:57.969Z,90.42
2016-12-12T22:01:11.925Z,90.52
2016-12-12T22:02:27.453Z,90.52
2016-12-12T22:03:42.081Z,90.8
2016-12-12T22:04:58.511Z,90.8
2016-12-12T22:06:14.490Z,90.71
2016-12-12T22:07:29.649Z,90.8
2016-12-12T22:08:45.295Z,90.61
2016-12-12T22:10:00.309Z,90.8
2016-12-12T22:11:14.703Z,90.42
2016-12-12T22:12:29.503Z,90.52
2016-12-12T22:13:44.365Z,90.8
2016-12-12T22:15:00.963Z,90.52
2016-12-12T22:16:17.144Z,90.71
2016-12-12T22:17:33.048Z,90.71
2016-12-12T22:18:49.587Z,90.9
2016-12-12T22:20:06.081Z,90.61
2016-12-12T22:21:22.361Z,90.71
2016-12-12T22:22:37.290Z,90.42
2016-12-12T22:23:53.789Z,90.71
2016-12-12T22:25:09.957Z,90.71
2016-12-12T22:26:24.973Z,90.61
2016-12-12T22:27:38.220Z,90.52
2016-12-12T22:28:53.063Z,90.42
2016-12-12T22:30:09.699Z,90.8
2016-12-12T22:31:24.423Z,90.71
2016-12-12T22:32:40.876Z,90.52
2016-12-12T22:33:53.877Z,90.23
2016-12-12T22:35:09.065Z,90.9
2016-12-12T22:36:22.709Z,90.9
2016-12-12T22:37:38.049Z,91.38
2016-12-12T22:38:51.036Z,90.9
2016-12-12T22:40:06.280Z,90.99
2016-12-12T22:41:20.984Z,91.09
2016-12-12T22:42:36.183Z,91.09
2016-12-12T22:43:51.551Z,90.99
2016-12-12T22:45:06.000Z,90.99
2016-12-12T22:46:21.901Z,91.38
2016-12-12T22:47:37.909Z,90.9
2016-12-12T22:48:51.494Z,90.9
2016-12-12T22:50:06.695Z,90.23
2016-12-12T22:51:22.975Z,90.52
2016-12-12T22:52:37.852Z,90.42
2016-12-12T22:53:52.575Z,90.42
2016-12-12T22:55:08.256Z,90.42
2016-12-12T22:56:23.333Z,90.33
2016-12-12T22:57:36.807Z,90.42
2016-12-12T22:58:52.475Z,90.52
2016-12-12T23:00:07.896Z,90.23
2016-12-12T23:01:24.087Z,90.52
2016-12-12T23:02:40.440Z,90.61
2016-12-12T23:03:56.961Z,90.42
2016-12-12T23:05:11.768Z,91.09
2016-12-12T23:06:27.679Z,91.19
2016-12-12T23:07:42.463Z,91.09
2016-12-12T23:08:57.517Z,91.09
2016-12-12T23:10:12.353Z,90.8
2016-12-12T23:11:28.396Z,90.99
2016-12-12T23:12:42.304Z,91.09
2016-12-12T23:13:55.353Z,90.61
2016-12-12T23:15:10.429Z,90.9
2016-12-12T23:16:23.583Z,91.09
2016-12-12T23:17:39.640Z,90.99
2016-12-12T23:18:54.328Z,90.99
2016-12-12T23:20:10.244Z,90.8
2016-12-12T23:21:26.979Z,90.99
2016-12-12T23:22:42.421Z,90.8
2016-12-12T23:23:58.757Z,90.99
2016-12-12T23:25:13.505Z,90.33
2016-12-12T23:26:29.964Z,90.42
2016-12-12T23:27:45.104Z,90.71
2016-12-12T23:29:01.340Z,90.42
2016-12-12T23:30:16.653Z,90.52
2016-12-12T23:31:32.994Z,90.14
2016-12-12T23:32:50.114Z,90.23
2016-12-12T23:34:05.119Z,90.52
2016-12-12T23:35:18.620Z,90.23
2016-12-12T23:36:34.846Z,90.05
2016-12-12T23:37:51.120Z,90.05
2016-12-12T23:39:07.843Z,89.76
2016-12-12T23:40:24.992Z,89.57
2016-12-12T23:41:41.048Z,89.76
2016-12-12T23:42:54.204Z,89.67
2016-12-12T23:44:06.588Z,89.57
2016-12-12T23:45:23.032Z,89.47
2016-12-12T23:46:39.427Z,89.19
2016-12-12T23:47:55.976Z,89.57
2016-12-12T23:49:12.336Z,89.38
2016-12-12T23:50:28.383Z,89.67
2016-12-12T23:51:42.408Z,89.76
2016-12-12T23:52:55.746Z,89.76
2016-12-12T23:54:10.361Z,89.86
2016-12-12T23:55:24.936Z,89.67
2016-12-12T23:56:38.582Z,89.19
2016-12-12T23:57:55.148Z,89.38
2016-12-12T23:59:09.851Z,88.71
